createdAt,value
2023-05-14T00:00:18.290Z,952.6539
2023-05-14T00:01:20.010Z,952.6362
2023-05-14T00:02:21.636Z,952.6230
2023-05-14T00:03:23.361Z,952.6115
2023-05-14T00:04:24.895Z,952.6208
2023-05-14T00:05:26.563Z,952.6308
2023-05-14T00:06:28.180Z,952.6262
2023-05-14T00:07:30.273Z,952.6246
2023-05-14T00:08:31.460Z,952.6270
2023-05-14T00:09:33.158Z,952.6230
2023-05-14T00:10:34.766Z,952.6077
2023-05-14T00:11:36.445Z,952.6023
2023-05-14T00:12:38.070Z,952.5961
2023-05-14T00:13:39.701Z,952.5992
2023-05-14T00:14:41.366Z,952.6154
2023-05-14T00:15:43.017Z,952.6277
2023-05-14T00:16:44.629Z,952.6408
2023-05-14T00:17:46.380Z,952.6446
2023-05-14T00:18:47.916Z,952.6331
2023-05-14T00:19:49.571Z,952.6200
2023-05-14T00:20:51.728Z,952.6115
2023-05-14T00:21:52.832Z,952.5931
2023-05-14T00:22:54.539Z,952.5762
2023-05-14T00:23:56.159Z,952.5731
2023-05-14T00:24:57.822Z,952.5723
2023-05-14T00:25:59.426Z,952.5762
2023-05-14T00:27:01.079Z,952.5646
2023-05-14T00:28:02.744Z,952.5615
2023-05-14T00:29:04.331Z,952.5585
2023-05-14T00:30:06.113Z,952.5485
2023-05-14T00:31:07.697Z,952.5369
2023-05-14T00:32:09.258Z,952.5277
2023-05-14T00:33:10.998Z,952.5285
2023-05-14T00:34:12.568Z,952.5185
2023-05-14T00:35:14.251Z,952.4992
2023-05-14T00:36:15.847Z,952.4946
2023-05-14T00:37:17.536Z,952.4777
2023-05-14T00:38:19.278Z,952.4684
2023-05-14T00:39:20.754Z,952.4677
2023-05-14T00:40:22.871Z,952.4584
2023-05-14T00:41:24.065Z,952.4500
2023-05-14T00:42:25.724Z,952.4385
2023-05-14T00:43:27.386Z,952.4354
2023-05-14T00:44:29.089Z,952.4223
2023-05-14T00:45:30.637Z,952.4131
2023-05-14T00:46:32.324Z,952.4077
2023-05-14T00:47:34.030Z,952.4161
2023-05-14T00:48:35.623Z,952.4153
2023-05-14T00:49:37.248Z,952.4238
2023-05-14T00:50:38.970Z,952.4185
2023-05-14T00:51:40.524Z,952.4192
2023-05-14T00:52:42.255Z,952.4146
2023-05-14T00:53:43.859Z,952.4161
2023-05-14T00:54:45.556Z,952.4123
2023-05-14T00:55:47.027Z,952.4246
2023-05-14T00:56:48.754Z,952.4161
2023-05-14T00:57:50.317Z,952.4100
2023-05-14T00:58:52.996Z,952.4061
2023-05-14T00:59:53.753Z,952.3954
2023-05-14T01:00:55.291Z,952.3908
2023-05-14T01:01:56.922Z,952.3770
2023-05-14T01:02:58.701Z,952.3746
2023-05-14T01:04:00.290Z,952.3800
2023-05-14T01:05:02.319Z,952.3692
2023-05-14T01:06:03.495Z,952.3561
2023-05-14T01:07:05.139Z,952.3439
2023-05-14T01:08:06.770Z,952.3323
2023-05-14T01:09:08.431Z,952.3270
2023-05-14T01:10:11.044Z,952.3208
2023-05-14T01:11:11.753Z,952.3215
2023-05-14T01:12:13.355Z,952.3115
2023-05-14T01:13:14.968Z,952.3046
2023-05-14T01:14:17.108Z,952.2953
2023-05-14T01:15:18.613Z,952.2938
2023-05-14T01:16:20.774Z,952.2977
2023-05-14T01:17:21.534Z,952.3023
2023-05-14T01:18:23.218Z,952.3108
2023-05-14T01:19:24.915Z,952.3146
2023-05-14T01:20:26.639Z,952.3069
2023-05-14T01:21:28.201Z,952.3115
2023-05-14T01:22:29.919Z,952.3038
2023-05-14T01:23:31.398Z,952.3030
2023-05-14T01:24:33.085Z,952.3008
2023-05-14T01:25:34.789Z,952.3138
2023-05-14T01:26:36.472Z,952.3085
2023-05-14T01:27:38.704Z,952.3000
2023-05-14T01:28:39.794Z,952.2846
2023-05-14T01:29:41.317Z,952.2808
2023-05-14T01:30:43.355Z,952.2739
2023-05-14T01:31:44.651Z,952.2800
2023-05-14T01:32:46.322Z,952.2762
2023-05-14T01:33:47.889Z,952.2700
2023-05-14T01:34:49.542Z,952.2523
2023-05-14T01:35:51.251Z,952.2446
2023-05-14T01:36:53.263Z,952.2438
2023-05-14T01:37:54.502Z,952.2562
2023-05-14T01:38:56.109Z,952.2577
2023-05-14T01:39:57.798Z,952.2462
2023-05-14T01:40:59.426Z,952.2485
2023-05-14T01:42:01.318Z,952.2685
2023-05-14T01:43:02.759Z,952.2739
2023-05-14T01:44:04.485Z,952.2900
2023-05-14T01:45:05.973Z,952.2885
2023-05-14T01:46:07.669Z,952.2915
2023-05-14T01:47:09.800Z,952.3000
2023-05-14T01:48:11.140Z,952.3054
2023-05-14T01:49:12.542Z,952.2961
2023-05-14T01:50:14.241Z,952.2877
2023-05-14T01:51:15.861Z,952.2800
2023-05-14T01:52:17.814Z,952.2823
2023-05-14T01:53:19.216Z,952.2923
2023-05-14T01:54:20.824Z,952.2938
2023-05-14T01:55:22.451Z,952.2731
2023-05-14T01:56:24.119Z,952.2670
2023-05-14T01:57:25.796Z,952.2623
2023-05-14T01:58:27.386Z,952.2523
2023-05-14T01:59:29.104Z,952.2508
2023-05-14T02:00:30.613Z,952.2538
2023-05-14T02:01:33.325Z,952.2377
2023-05-14T02:02:33.969Z,952.2261
2023-05-14T02:03:35.576Z,952.2253
2023-05-14T02:04:37.203Z,952.2115
2023-05-14T02:05:38.841Z,952.2131
2023-05-14T02:06:40.710Z,952.2177
2023-05-14T02:07:42.195Z,952.2215
2023-05-14T02:08:43.752Z,952.2184
2023-05-14T02:09:45.457Z,952.1931
2023-05-14T02:10:47.048Z,952.1715
2023-05-14T02:11:48.795Z,952.1469
2023-05-14T02:12:50.386Z,952.1392
2023-05-14T02:13:52.045Z,952.1492
2023-05-14T02:14:53.639Z,952.1661
2023-05-14T02:15:55.350Z,952.1708
2023-05-14T02:16:56.949Z,952.1692
2023-05-14T02:17:58.836Z,952.1777
2023-05-14T02:19:01.281Z,952.1677
2023-05-14T02:20:01.878Z,952.1561
2023-05-14T02:21:03.549Z,952.1423
2023-05-14T02:22:05.164Z,952.1308
2023-05-14T02:23:07.761Z,952.1285
2023-05-14T02:24:08.498Z,952.1061
2023-05-14T02:25:10.080Z,952.0992
2023-05-14T02:26:11.708Z,952.0847
2023-05-14T02:27:13.395Z,952.0731
2023-05-14T02:28:15.747Z,952.0646
2023-05-14T02:29:16.678Z,952.0523
2023-05-14T02:30:18.296Z,952.0400
2023-05-14T02:31:20.068Z,952.0339
2023-05-14T02:32:21.603Z,952.0346
2023-05-14T02:33:23.375Z,952.0415
2023-05-14T02:34:25.051Z,952.0531
2023-05-14T02:35:26.542Z,952.0692
2023-05-14T02:36:28.245Z,952.0585
2023-05-14T02:37:29.824Z,952.0530
2023-05-14T02:38:31.491Z,952.0530
2023-05-14T02:39:33.077Z,952.0469
2023-05-14T02:40:34.773Z,952.0415
2023-05-14T02:41:36.346Z,952.0385
2023-05-14T02:42:38.221Z,952.0308
2023-05-14T02:43:39.641Z,952.0269
2023-05-14T02:44:41.334Z,952.0408
2023-05-14T02:45:42.968Z,952.0254
2023-05-14T02:46:44.623Z,952.0354
2023-05-14T02:47:46.384Z,952.0331
2023-05-14T02:48:48.739Z,952.0385
2023-05-14T02:49:49.526Z,952.0262
2023-05-14T02:50:51.222Z,952.0208
2023-05-14T02:51:52.799Z,952.0377
2023-05-14T02:52:54.703Z,952.0247
2023-05-14T02:53:57.196Z,952.0139
2023-05-14T02:54:58.866Z,951.9908
2023-05-14T02:55:59.622Z,951.9823
2023-05-14T02:57:01.188Z,951.9769
2023-05-14T02:58:02.863Z,951.9861
2023-05-14T02:59:04.579Z,951.9723
2023-05-14T03:00:06.151Z,951.9577
2023-05-14T03:01:07.867Z,951.9470
2023-05-14T03:02:09.407Z,951.9585
2023-05-14T03:03:11.118Z,951.9753
2023-05-14T03:04:12.688Z,951.9738
2023-05-14T03:05:14.314Z,951.9631
2023-05-14T03:06:15.995Z,951.9639
2023-05-14T03:07:17.643Z,951.9761
2023-05-14T03:08:19.329Z,951.9753
2023-05-14T03:09:20.900Z,951.9815
2023-05-14T03:10:22.686Z,951.9900
2023-05-14T03:11:24.340Z,951.9977
2023-05-14T03:12:25.821Z,952.0031
2023-05-14T03:13:27.507Z,951.9869
2023-05-14T03:14:29.146Z,951.9954
2023-05-14T03:15:30.791Z,952.0031
2023-05-14T03:16:33.379Z,951.9954
2023-05-14T03:17:34.088Z,951.9830
2023-05-14T03:18:35.836Z,951.9661
2023-05-14T03:19:37.370Z,951.9492
2023-05-14T03:20:38.932Z,951.9539
2023-05-14T03:21:40.630Z,951.9554
2023-05-14T03:22:42.235Z,951.9585
2023-05-14T03:23:43.969Z,951.9554
2023-05-14T03:24:45.538Z,951.9569
2023-05-14T03:25:47.562Z,951.9477
2023-05-14T03:26:49.208Z,951.9392
2023-05-14T03:27:50.593Z,951.9230
2023-05-14T03:28:52.100Z,951.9300
2023-05-14T03:29:53.746Z,951.9161
2023-05-14T03:30:55.745Z,951.9161
2023-05-14T03:31:57.354Z,951.9338
2023-05-14T03:32:58.990Z,951.9377
2023-05-14T03:34:00.409Z,951.9261
2023-05-14T03:35:02.017Z,951.9392
2023-05-14T03:36:03.686Z,951.9392
2023-05-14T03:37:05.266Z,951.9315
2023-05-14T03:38:07.008Z,951.9169
2023-05-14T03:39:08.648Z,951.9215
2023-05-14T03:40:10.267Z,951.9200
2023-05-14T03:41:11.864Z,951.9054
2023-05-14T03:42:13.568Z,951.8947
2023-05-14T03:43:15.160Z,951.8923
2023-05-14T03:44:16.854Z,951.8877
2023-05-14T03:45:18.558Z,951.8862
2023-05-14T03:46:20.129Z,951.8646
2023-05-14T03:47:22.064Z,951.8408
2023-05-14T03:48:23.841Z,951.8608
2023-05-14T03:49:25.067Z,951.8738
2023-05-14T03:50:26.714Z,951.8708
2023-05-14T03:51:28.304Z,951.8785
2023-05-14T03:52:30.057Z,951.8792
2023-05-14T03:53:31.659Z,951.8730
2023-05-14T03:54:33.271Z,951.8654
2023-05-14T03:55:34.862Z,951.8708
2023-05-14T03:56:36.612Z,951.8623
2023-05-14T03:57:38.198Z,951.8492
2023-05-14T03:58:39.866Z,951.8431
2023-05-14T03:59:41.465Z,951.8400
2023-05-14T04:00:43.094Z,951.8354
2023-05-14T04:01:44.923Z,951.8162
2023-05-14T04:02:46.562Z,951.8108
2023-05-14T04:03:48.580Z,951.8123
2023-05-14T04:04:49.814Z,951.8146
2023-05-14T04:05:51.878Z,951.8292
2023-05-14T04:06:53.922Z,951.8454
2023-05-14T04:07:54.593Z,951.8423
2023-05-14T04:08:56.361Z,951.8515
2023-05-14T04:09:57.921Z,951.8592
2023-05-14T04:10:59.524Z,951.8669
2023-05-14T04:12:01.186Z,951.8723
2023-05-14T04:13:02.837Z,951.8762
2023-05-14T04:14:05.367Z,951.8669
2023-05-14T04:15:06.149Z,951.8508
2023-05-14T04:16:07.835Z,951.8477
2023-05-14T04:17:09.447Z,951.8408
2023-05-14T04:18:11.029Z,951.8408
2023-05-14T04:19:12.787Z,951.8439
2023-05-14T04:20:14.348Z,951.8546
2023-05-14T04:21:16.039Z,951.8439
2023-05-14T04:22:17.612Z,951.8439
2023-05-14T04:23:19.233Z,951.8546
2023-05-14T04:24:20.908Z,951.8615
2023-05-14T04:25:22.664Z,951.8561
2023-05-14T04:26:24.165Z,951.8685
2023-05-14T04:27:25.892Z,951.8677
2023-05-14T04:28:27.516Z,951.8815
2023-05-14T04:29:29.176Z,951.8947
2023-05-14T04:30:30.889Z,951.8939
2023-05-14T04:31:33.440Z,951.8846
2023-05-14T04:32:34.088Z,951.8862
2023-05-14T04:33:35.722Z,951.8931
2023-05-14T04:34:37.342Z,951.9016
2023-05-14T04:35:39.023Z,951.9077
2023-05-14T04:36:40.639Z,951.9185
2023-05-14T04:37:42.368Z,951.9292
2023-05-14T04:38:43.994Z,951.9300
2023-05-14T04:39:45.586Z,951.9246
2023-05-14T04:40:47.227Z,951.9185
2023-05-14T04:41:48.876Z,951.9100
2023-05-14T04:42:50.580Z,951.8915
2023-05-14T04:43:52.140Z,951.8885
2023-05-14T04:44:53.811Z,951.8900
2023-05-14T04:45:55.432Z,951.9100
2023-05-14T04:46:57.136Z,951.9115
2023-05-14T04:47:58.768Z,951.8954
2023-05-14T04:49:00.361Z,951.8900
2023-05-14T04:50:02.137Z,951.8746
2023-05-14T04:51:05.634Z,951.9108
2023-05-14T04:52:05.318Z,951.9246
2023-05-14T04:53:06.985Z,951.9362
2023-05-14T04:54:08.597Z,951.9161
2023-05-14T04:55:10.287Z,951.9061
2023-05-14T04:56:11.965Z,951.9031
2023-05-14T04:57:13.597Z,951.9000
2023-05-14T04:58:15.174Z,951.8931
2023-05-14T04:59:16.904Z,951.8754
2023-05-14T05:00:19.394Z,951.8862
2023-05-14T05:01:20.177Z,951.9277
2023-05-14T05:02:21.798Z,951.9508
2023-05-14T05:03:23.408Z,951.9547
2023-05-14T05:04:25.082Z,951.9608
2023-05-14T05:05:26.698Z,951.9577
2023-05-14T05:06:28.317Z,951.9554
2023-05-14T05:07:30.073Z,951.9592
2023-05-14T05:08:31.700Z,951.9700
2023-05-14T05:09:33.275Z,951.9684
2023-05-14T05:10:34.936Z,951.9661
2023-05-14T05:11:36.619Z,951.9969
2023-05-14T05:12:39.180Z,951.9885
2023-05-14T05:13:39.894Z,952.0092
2023-05-14T05:14:41.436Z,952.0085
2023-05-14T05:15:43.535Z,952.0177
2023-05-14T05:16:45.655Z,952.0085
2023-05-14T05:17:46.436Z,952.0231
2023-05-14T05:18:48.060Z,952.0277
2023-05-14T05:19:49.660Z,952.0361
2023-05-14T05:20:51.279Z,952.0477
2023-05-14T05:21:52.927Z,952.0369
2023-05-14T05:22:54.615Z,952.0430
2023-05-14T05:23:56.272Z,952.0416
2023-05-14T05:24:57.845Z,952.0515
2023-05-14T05:25:59.549Z,952.0623
2023-05-14T05:27:01.249Z,952.0446
2023-05-14T05:28:02.839Z,952.0231
2023-05-14T05:29:04.465Z,952.0008
2023-05-14T05:30:06.233Z,952.0100
2023-05-14T05:31:07.857Z,952.0331
2023-05-14T05:32:09.436Z,952.0369
2023-05-14T05:33:11.266Z,952.0231
2023-05-14T05:34:12.726Z,952.0277
2023-05-14T05:35:14.501Z,952.0123
2023-05-14T05:36:16.077Z,952.0223
2023-05-14T05:37:17.784Z,952.0316
2023-05-14T05:38:19.424Z,952.0231
2023-05-14T05:39:21.067Z,952.0015
2023-05-14T05:40:22.770Z,952.0092
2023-05-14T05:41:24.316Z,952.0062
2023-05-14T05:42:25.913Z,951.9985
2023-05-14T05:43:27.582Z,952.0038
2023-05-14T05:44:29.263Z,951.9892
2023-05-14T05:45:30.867Z,951.9646
2023-05-14T05:46:32.603Z,951.9792
2023-05-14T05:47:34.143Z,951.9738
2023-05-14T05:48:35.763Z,951.9985
2023-05-14T05:49:37.455Z,951.9861
2023-05-14T05:50:39.078Z,951.9400
2023-05-14T05:51:40.714Z,951.9431
2023-05-14T05:52:42.314Z,951.9515
2023-05-14T05:53:44.903Z,951.9746
2023-05-14T05:54:45.671Z,952.0054
2023-05-14T05:55:47.317Z,951.9861
2023-05-14T05:56:48.888Z,951.9531
2023-05-14T05:57:50.602Z,951.9684
2023-05-14T05:58:52.949Z,951.9992
2023-05-14T05:59:54.911Z,952.0038
2023-05-14T06:00:55.468Z,952.0085
2023-05-14T06:01:57.194Z,951.9792
2023-05-14T06:02:58.822Z,951.9800
2023-05-14T06:04:00.512Z,951.9962
2023-05-14T06:05:02.214Z,952.0269
2023-05-14T06:06:03.734Z,952.0385
2023-05-14T06:07:05.651Z,952.0469
2023-05-14T06:08:07.028Z,952.0139
2023-05-14T06:09:08.686Z,952.0146
2023-05-14T06:10:10.358Z,952.0316
2023-05-14T06:11:11.894Z,952.0361
2023-05-14T06:12:13.624Z,952.0615
2023-05-14T06:13:15.229Z,952.0585
2023-05-14T06:14:16.937Z,952.0184
2023-05-14T06:15:18.917Z,952.0154
2023-05-14T06:16:20.199Z,952.0200
2023-05-14T06:17:21.811Z,952.0316
2023-05-14T06:18:23.485Z,952.0461
2023-05-14T06:19:25.145Z,952.0300
2023-05-14T06:20:26.906Z,952.0062
2023-05-14T06:21:28.408Z,952.0123
2023-05-14T06:22:30.041Z,952.0085
2023-05-14T06:23:31.641Z,952.0269
2023-05-14T06:24:33.448Z,952.0408
2023-05-14T06:25:34.976Z,952.0323
2023-05-14T06:26:36.632Z,952.0038
2023-05-14T06:27:38.246Z,951.9930
2023-05-14T06:28:39.992Z,952.0008
2023-05-14T06:29:41.563Z,952.0092
2023-05-14T06:30:43.283Z,952.0146
2023-05-14T06:31:44.898Z,952.0031
2023-05-14T06:32:46.593Z,951.9800
2023-05-14T06:33:48.112Z,951.9731
2023-05-14T06:34:49.883Z,951.9646
2023-05-14T06:35:51.446Z,951.9885
2023-05-14T06:36:53.103Z,951.9854
2023-05-14T06:37:54.803Z,951.9631
2023-05-14T06:38:56.368Z,951.9269
2023-05-14T06:39:58.172Z,951.9392
2023-05-14T06:40:59.707Z,951.9408
2023-05-14T06:42:01.367Z,951.9731
2023-05-14T06:43:02.987Z,951.9777
2023-05-14T06:44:04.603Z,951.9639
2023-05-14T06:45:06.256Z,951.9485
2023-05-14T06:46:08.426Z,951.9600
2023-05-14T06:47:09.615Z,951.9715
2023-05-14T06:48:11.235Z,952.0062
2023-05-14T06:49:12.852Z,952.0200
2023-05-14T06:50:14.561Z,952.0200
2023-05-14T06:51:16.901Z,952.0231
2023-05-14T06:52:17.766Z,952.0239
2023-05-14T06:53:19.419Z,952.0530
2023-05-14T06:54:21.068Z,952.0615
2023-05-14T06:55:22.700Z,952.0708
2023-05-14T06:56:24.405Z,952.0785
2023-05-14T06:57:25.943Z,952.0792
2023-05-14T06:58:27.627Z,952.0608
2023-05-14T06:59:29.216Z,952.0677
2023-05-14T07:00:30.980Z,952.0916
2023-05-14T07:01:32.532Z,952.0877
2023-05-14T07:02:34.158Z,952.0923
2023-05-14T07:03:36.301Z,952.0554
2023-05-14T07:04:37.469Z,952.0438
2023-05-14T07:05:39.048Z,952.0508
2023-05-14T07:06:40.801Z,952.0500
2023-05-14T07:07:42.356Z,952.0577
2023-05-14T07:08:44.051Z,952.0338
2023-05-14T07:09:45.630Z,952.0162
2023-05-14T07:10:47.385Z,952.0231
2023-05-14T07:11:49.480Z,952.0208
2023-05-14T07:12:50.616Z,952.0508
2023-05-14T07:13:52.266Z,952.0500
2023-05-14T07:14:53.933Z,952.0354
2023-05-14T07:15:55.533Z,952.0438
2023-05-14T07:16:57.245Z,952.0392
2023-05-14T07:17:58.859Z,952.0385
2023-05-14T07:19:00.558Z,952.0377
2023-05-14T07:20:02.134Z,952.0308
2023-05-14T07:21:03.801Z,952.0015
2023-05-14T07:22:05.414Z,952.0239
2023-05-14T07:23:07.050Z,952.0200
2023-05-14T07:24:08.716Z,952.0023
2023-05-14T07:25:10.344Z,952.0000
2023-05-14T07:26:12.015Z,951.9846
2023-05-14T07:27:13.615Z,951.9669
2023-05-14T07:28:15.254Z,951.9715
2023-05-14T07:29:16.983Z,951.9577
2023-05-14T07:30:18.533Z,951.9492
2023-05-14T07:31:20.309Z,951.9539
2023-05-14T07:32:21.852Z,951.9146
2023-05-14T07:33:23.509Z,951.8977
2023-05-14T07:34:25.148Z,951.9123
2023-05-14T07:35:26.747Z,951.9338
2023-05-14T07:36:28.426Z,951.9192
2023-05-14T07:37:30.109Z,951.9054
2023-05-14T07:38:31.720Z,951.8831
2023-05-14T07:39:33.345Z,951.8831
2023-05-14T07:40:34.980Z,951.9054
2023-05-14T07:41:37.333Z,951.9146
2023-05-14T07:42:38.263Z,951.8947
2023-05-14T07:43:39.949Z,951.8923
2023-05-14T07:44:41.616Z,951.8831
2023-05-14T07:45:43.214Z,951.8592
2023-05-14T07:46:44.928Z,951.8815
2023-05-14T07:47:46.534Z,951.8977
2023-05-14T07:48:48.126Z,951.8754
2023-05-14T07:49:49.778Z,951.8800
2023-05-14T07:50:51.444Z,951.8831
2023-05-14T07:51:53.843Z,951.8646
2023-05-14T07:52:54.813Z,951.8692
2023-05-14T07:53:56.512Z,951.8692
2023-05-14T07:54:58.279Z,951.8623
2023-05-14T07:55:59.770Z,951.8685
2023-05-14T07:57:01.511Z,951.8692
2023-05-14T07:58:03.574Z,951.8630
2023-05-14T07:59:04.751Z,951.8770
2023-05-14T08:00:06.545Z,951.8730
2023-05-14T08:01:09.078Z,951.8785
2023-05-14T08:02:09.711Z,951.8638
2023-05-14T08:03:11.452Z,951.8461
2023-05-14T08:04:13.159Z,951.8446
2023-05-14T08:05:14.608Z,951.8692
2023-05-14T08:06:16.273Z,951.8754
2023-05-14T08:07:17.906Z,951.8715
2023-05-14T08:08:19.516Z,951.8454
2023-05-14T08:09:21.210Z,951.8392
2023-05-14T08:10:24.025Z,951.8500
2023-05-14T08:11:24.420Z,951.8608
2023-05-14T08:12:27.094Z,951.8439
2023-05-14T08:13:27.722Z,951.8461
2023-05-14T08:14:29.632Z,951.8738
2023-05-14T08:15:31.023Z,951.8516
2023-05-14T08:16:32.785Z,951.8362
2023-05-14T08:17:34.363Z,951.8085
2023-05-14T08:18:36.040Z,951.8077
2023-05-14T08:19:38.561Z,951.8123
2023-05-14T08:20:39.294Z,951.7938
2023-05-14T08:21:41.052Z,951.7769
2023-05-14T08:22:42.685Z,951.7369
2023-05-14T08:23:44.552Z,951.7315
2023-05-14T08:24:45.926Z,951.7369
2023-05-14T08:25:47.519Z,951.7408
2023-05-14T08:26:49.264Z,951.7369
2023-05-14T08:27:50.823Z,951.7077
2023-05-14T08:28:52.488Z,951.6862
2023-05-14T08:29:54.056Z,951.7069
2023-05-14T08:30:55.759Z,951.7323
2023-05-14T08:31:57.610Z,951.7315
2023-05-14T08:32:59.716Z,951.7161
2023-05-14T08:34:00.687Z,951.7085
2023-05-14T08:35:02.278Z,951.6985
2023-05-14T08:36:03.996Z,951.7323
2023-05-14T08:37:05.640Z,951.7446
2023-05-14T08:38:08.266Z,951.7123
2023-05-14T08:39:09.029Z,951.7131
2023-05-14T08:40:10.523Z,951.7323
2023-05-14T08:41:12.317Z,951.7246
2023-05-14T08:42:13.858Z,951.7223
2023-05-14T08:43:15.580Z,951.7169
2023-05-14T08:44:17.155Z,951.6977
2023-05-14T08:45:18.864Z,951.7115
2023-05-14T08:46:20.422Z,951.7285
2023-05-14T08:47:22.123Z,951.7069
2023-05-14T08:48:23.774Z,951.6962
2023-05-14T08:49:25.366Z,951.6808
2023-05-14T08:50:27.455Z,951.6838
2023-05-14T08:51:28.636Z,951.6885
2023-05-14T08:52:30.283Z,951.6792
2023-05-14T08:53:31.953Z,951.7331
2023-05-14T08:54:33.619Z,951.6731
2023-05-14T08:55:35.213Z,951.6277
2023-05-14T08:56:36.830Z,951.6615
2023-05-14T08:57:38.542Z,951.6315
2023-05-14T08:58:40.200Z,951.6377
2023-05-14T08:59:41.894Z,951.6308
2023-05-14T09:00:43.459Z,951.6339
2023-05-14T09:01:45.146Z,951.6262
2023-05-14T09:02:46.805Z,951.5916
2023-05-14T09:03:48.351Z,951.5692
2023-05-14T09:04:49.979Z,951.6008
2023-05-14T09:05:51.807Z,951.6177
2023-05-14T09:06:53.305Z,951.6016
2023-05-14T09:07:55.009Z,951.5715
2023-05-14T09:08:56.586Z,951.5485
2023-05-14T09:09:58.322Z,951.5670
2023-05-14T09:11:00.868Z,951.5931
2023-05-14T09:12:01.583Z,951.5916
2023-05-14T09:13:03.215Z,951.5623
2023-05-14T09:14:04.775Z,951.5469
2023-05-14T09:15:07.250Z,951.5508
2023-05-14T09:16:08.156Z,951.5700
2023-05-14T09:17:09.828Z,951.5662
2023-05-14T09:18:11.372Z,951.5608
2023-05-14T09:19:13.193Z,951.5339
2023-05-14T09:20:14.693Z,951.5446
2023-05-14T09:21:16.491Z,951.5215
2023-05-14T09:22:17.985Z,951.5008
2023-05-14T09:23:19.710Z,951.5154
2023-05-14T09:24:21.381Z,951.5239
2023-05-14T09:25:24.034Z,951.5185
2023-05-14T09:26:24.520Z,951.5316
2023-05-14T09:27:27.244Z,951.4992
2023-05-14T09:28:27.844Z,951.4823
2023-05-14T09:29:29.494Z,951.5154
2023-05-14T09:30:32.522Z,951.5708
2023-05-14T09:31:32.746Z,951.5623
2023-05-14T09:32:35.552Z,951.5700
2023-05-14T09:33:36.116Z,951.5662
2023-05-14T09:34:38.108Z,951.5754
2023-05-14T09:35:39.531Z,951.6161
2023-05-14T09:36:41.165Z,951.6254
2023-05-14T09:37:42.800Z,951.5723
2023-05-14T09:38:44.441Z,951.5577
2023-05-14T09:39:45.982Z,951.5608
2023-05-14T09:40:47.750Z,951.5569
2023-05-14T09:41:49.327Z,951.5700
2023-05-14T09:42:50.982Z,951.5746
2023-05-14T09:43:52.634Z,951.5162
2023-05-14T09:44:54.261Z,951.5131
2023-05-14T09:45:55.960Z,951.5177
2023-05-14T09:46:57.614Z,951.5023
2023-05-14T09:48:00.329Z,951.5008
2023-05-14T09:49:00.806Z,951.4992
2023-05-14T09:50:03.425Z,951.4539
2023-05-14T09:51:04.738Z,951.4547
2023-05-14T09:52:05.728Z,951.4362
2023-05-14T09:53:07.472Z,951.4208
2023-05-14T09:54:09.105Z,951.4161
2023-05-14T09:55:10.675Z,951.4492
2023-05-14T09:56:12.485Z,951.4338
2023-05-14T09:57:14.055Z,951.4138
2023-05-14T09:58:15.667Z,951.4193
2023-05-14T09:59:17.593Z,951.4169
2023-05-14T10:00:18.986Z,951.4108
2023-05-14T10:01:21.704Z,951.4177
2023-05-14T10:02:22.328Z,951.3962
2023-05-14T10:03:23.929Z,951.3800
2023-05-14T10:04:25.511Z,951.3669
2023-05-14T10:05:27.209Z,951.3677
2023-05-14T10:06:28.820Z,951.3469
2023-05-14T10:07:30.449Z,951.3661
2023-05-14T10:08:32.639Z,951.3307
2023-05-14T10:09:33.784Z,951.3223
2023-05-14T10:10:35.385Z,951.3154
2023-05-14T10:11:38.101Z,951.3223
2023-05-14T10:12:38.689Z,951.3254
2023-05-14T10:13:40.282Z,951.3115
2023-05-14T10:14:42.026Z,951.2923
2023-05-14T10:15:43.612Z,951.2762
2023-05-14T10:16:45.274Z,951.2946
2023-05-14T10:17:47.085Z,951.3154
2023-05-14T10:18:48.661Z,951.3046
2023-05-14T10:19:50.223Z,951.2731
2023-05-14T10:20:51.799Z,951.2515
2023-05-14T10:21:53.521Z,951.2469
2023-05-14T10:22:55.138Z,951.2585
2023-05-14T10:23:56.973Z,951.2808
2023-05-14T10:24:58.540Z,951.2892
2023-05-14T10:26:00.201Z,951.2585
2023-05-14T10:27:01.774Z,951.2631
2023-05-14T10:28:03.385Z,951.2354
2023-05-14T10:29:05.026Z,951.2161
2023-05-14T10:30:06.656Z,951.2423
2023-05-14T10:31:08.264Z,951.2500
2023-05-14T10:32:10.062Z,951.2254
2023-05-14T10:33:12.619Z,951.2169
2023-05-14T10:34:13.193Z,951.1769
2023-05-14T10:35:15.863Z,951.1800
2023-05-14T10:36:16.484Z,951.2254
2023-05-14T10:37:18.134Z,951.2361
2023-05-14T10:38:19.712Z,951.1870
2023-05-14T10:39:21.444Z,951.1715
2023-05-14T10:40:23.133Z,951.1454
2023-05-14T10:41:24.762Z,951.1854
2023-05-14T10:42:26.315Z,951.2208
2023-05-14T10:43:28.000Z,951.2331
2023-05-14T10:44:29.632Z,951.1908
2023-05-14T10:45:31.334Z,951.1992
2023-05-14T10:46:32.936Z,951.2054
2023-05-14T10:47:34.605Z,951.2039
2023-05-14T10:48:36.196Z,951.2216
2023-05-14T10:49:43.349Z,951.2169
2023-05-14T10:50:39.516Z,951.2146
2023-05-14T10:51:41.253Z,951.2031
2023-05-14T10:52:42.780Z,951.1600
2023-05-14T10:53:44.494Z,951.1492
2023-05-14T10:54:46.080Z,951.1823
2023-05-14T10:55:47.732Z,951.1992
2023-05-14T10:56:49.407Z,951.1785
2023-05-14T10:57:51.017Z,951.1469
2023-05-14T10:58:52.664Z,951.1230
2023-05-14T10:59:55.171Z,951.1423
2023-05-14T11:00:56.025Z,951.1723
2023-05-14T11:01:57.749Z,951.1492
2023-05-14T11:02:59.368Z,951.1169
2023-05-14T11:04:01.017Z,951.0754
2023-05-14T11:05:04.440Z,951.0762
2023-05-14T11:06:04.235Z,951.0800
2023-05-14T11:07:05.905Z,951.0677
2023-05-14T11:08:07.574Z,951.0585
2023-05-14T11:09:09.131Z,951.0562
2023-05-14T11:10:10.859Z,951.0831
2023-05-14T11:11:12.508Z,951.0785
2023-05-14T11:12:14.065Z,951.0608
2023-05-14T11:13:15.681Z,951.0731
2023-05-14T11:14:17.434Z,951.0670
2023-05-14T11:15:19.029Z,951.0662
2023-05-14T11:16:23.760Z,951.0554
2023-05-14T11:17:22.302Z,951.0208
2023-05-14T11:18:23.958Z,951.0054
2023-05-14T11:19:25.627Z,951.0031
2023-05-14T11:20:27.346Z,951.0469
2023-05-14T11:21:29.007Z,951.0431
2023-05-14T11:22:30.552Z,951.0292
2023-05-14T11:23:32.168Z,951.0115
2023-05-14T11:24:33.832Z,950.9785
2023-05-14T11:25:35.547Z,950.9823
2023-05-14T11:26:38.122Z,950.9892
2023-05-14T11:27:38.762Z,950.9738
2023-05-14T11:28:40.562Z,950.9562
2023-05-14T11:29:42.090Z,950.9438
2023-05-14T11:30:43.712Z,950.9346
2023-05-14T11:31:45.475Z,950.9354
2023-05-14T11:32:47.001Z,950.9185
2023-05-14T11:33:48.641Z,950.8846
2023-05-14T11:34:50.573Z,950.8661
2023-05-14T11:35:51.964Z,950.8592
2023-05-14T11:36:53.547Z,950.8831
2023-05-14T11:37:55.204Z,950.8808
2023-05-14T11:38:56.824Z,950.8446
2023-05-14T11:39:58.558Z,950.8331
2023-05-14T11:41:00.160Z,950.8392
2023-05-14T11:42:01.739Z,950.8608
2023-05-14T11:43:03.425Z,950.8738
2023-05-14T11:44:05.964Z,950.8600
2023-05-14T11:45:06.762Z,950.8577
2023-05-14T11:46:08.436Z,950.8385
2023-05-14T11:47:10.059Z,950.8477
2023-05-14T11:48:11.649Z,950.8623
2023-05-14T11:49:13.308Z,950.8431
2023-05-14T11:50:14.906Z,950.8347
2023-05-14T11:51:16.717Z,950.8054
2023-05-14T11:52:18.209Z,950.7992
2023-05-14T11:53:19.873Z,950.8100
2023-05-14T11:54:21.593Z,950.8015
2023-05-14T11:55:23.207Z,950.7992
2023-05-14T11:56:24.820Z,950.7823
2023-05-14T11:57:26.503Z,950.7762
2023-05-14T11:58:28.048Z,950.7538
2023-05-14T11:59:29.663Z,950.7300
2023-05-14T12:00:31.317Z,950.7246
2023-05-14T12:01:33.016Z,950.7092
2023-05-14T12:02:34.712Z,950.7492
2023-05-14T12:03:36.386Z,950.7831